Time;durP1;ratioP1;P1;durP2;ratioP2;P2;SDS_P1;SDS_P2;PMS_P1;PMS_P2;Temp;Humidity;BMP_temperature;BMP_pressure;BME280_temperature;BME280_humidity;BME280_pressure;Samples;Min_cycle;Max_cycle;Signal;HPM_P1;HPM_P2
2022/01/23 00:01:12;;;;;;;17.00;5.50;;;;;;;-0.96;71.74;101416.98;84850;1323;23803;-89
2022/01/23 00:03:21;;;;;;;11.10;4.90;;;;;;;-0.95;71.47;101415.13;84809;1326;22748;-89
2022/01/23 00:05:37;;;;;;;17.40;6.00;;;;;;;-0.94;71.41;101418.23;84180;1322;1003916;-82
2022/01/23 00:07:51;;;;;;;10.30;5.40;;;;;;;-0.96;71.41;101421.63;84854;1327;22622;-81
2022/01/23 00:10:00;;;;;;;14.90;5.50;;;;;;;-0.96;71.46;101425.89;84894;1323;25638;-82
2022/01/23 00:12:15;;;;;;;8.10;4.40;;;;;;;-0.98;71.65;101424.14;84976;1324;22631;-88
2022/01/23 00:19:19;;;;;;;15.40;5.80;;;;;;;-1.02;71.65;101423.85;84849;1323;22607;-81
2022/01/23 00:21:33;;;;;;;17.00;7.30;;;;;;;-1.05;71.73;101425.33;84841;1325;22586;-81
2022/01/23 00:31:01;;;;;;;7.20;4.30;;;;;;;-1.02;72.15;101423.68;84738;1328;24410;-83
2022/01/23 00:33:15;;;;;;;13.50;4.80;;;;;;;-1.02;71.86;101420.45;84840;1327;22611;-82
2022/01/23 00:35:28;;;;;;;11.70;5.10;;;;;;;-0.99;72.17;101423.92;84807;1322;22862;-88
2022/01/23 00:37:38;;;;;;;12.80;6.50;;;;;;;-0.99;71.99;101420.35;84824;1326;22583;-89
2022/01/23 00:39:50;;;;;;;14.20;6.40;;;;;;;-1.00;71.91;101410.73;84860;1321;22599;-88
2022/01/23 00:41:59;;;;;;;10.40;5.90;;;;;;;-1.01;72.23;101406.77;84804;1326;22758;-88
2022/01/23 00:44:10;;;;;;;8.50;5.00;;;;;;;-1.02;72.01;101406.22;84787;1326;22591;-88
2022/01/23 00:46:30;;;;;;;10.50;4.40;;;;;;;-1.04;72.20;101410.80;84808;1318;22622;-88
2022/01/23 00:48:50;;;;;;;9.70;5.10;;;;;;;-1.06;72.24;101413.84;84849;1326;22631;-89
2022/01/23 00:50:59;;;;;;;8.60;4.90;;;;;;;-1.07;72.34;101415.51;84801;1326;22801;-88
2022/01/23 00:53:14;;;;;;;14.10;5.60;;;;;;;-1.08;72.39;101416.00;84156;1320;1003152;-88
2022/01/23 00:55:24;;;;;;;128.00;47.50;;;;;;;-1.09;72.47;101418.55;84837;1326;22756;-87
2022/01/23 00:57:34;;;;;;;199.20;66.60;;;;;;;-1.09;72.53;101417.00;84845;1323;22576;-87
2022/01/23 00:59:46;;;;;;;165.70;55.50;;;;;;;-1.10;72.55;101417.33;84844;1321;22621;-82
2022/01/23 01:01:58;;;;;;;139.80;48.50;;;;;;;-1.08;72.67;101423.73;84852;1322;25565;-87
2022/01/23 01:04:11;;;;;;;112.50;32.50;;;;;;;-1.05;72.91;101416.42;84867;1321;22645;-87
2022/01/23 01:06:20;;;;;;;268.90;75.20;;;;;;;-1.02;72.78;101423.70;84786;1325;22740;-88
2022/01/23 01:08:35;;;;;;;242.40;69.80;;;;;;;-1.02;72.76;101419.40;84877;1323;25514;-87
2022/01/23 01:10:58;;;;;;;228.50;60.10;;;;;;;-1.01;72.79;101420.64;84830;1326;26518;-82
2022/01/23 01:13:11;;;;;;;153.50;50.20;;;;;;;-0.99;72.76;101420.66;84773;1325;22983;-83
2022/01/23 01:30:31;;;;;;;61.20;25.20;;;;;;;-1.15;73.42;101427.63;84855;1321;22615;-83
2022/01/23 01:33:04;;;;;;;50.40;21.70;;;;;;;-1.14;73.45;101432.95;84861;1323;23999;-82
2022/01/23 01:35:23;;;;;;;41.10;18.80;;;;;;;-1.11;73.35;101440.92;84848;1324;22662;-82
2022/01/23 01:37:32;;;;;;;49.10;20.90;;;;;;;-1.10;73.43;101445.73;84861;1327;24137;-82
2022/01/23 01:39:41;;;;;;;63.40;28.70;;;;;;;-1.10;73.60;101447.46;84836;1322;22599;-82
2022/01/23 01:41:53;;;;;;;34.40;13.80;;;;;;;-1.08;73.76;101444.95;84835;1323;23968;-82
2022/01/23 01:44:05;;;;;;;22.40;10.00;;;;;;;-1.06;73.48;101442.94;84835;1323;22583;-88
2022/01/23 01:46:17;;;;;;;50.80;25.80;;;;;;;-1.06;73.83;101438.67;84867;1326;25009;-83
2022/01/23 01:48:27;;;;;;;60.30;29.90;;;;;;;-1.07;73.63;101440.85;84768;1326;22948;-82
2022/01/23 01:50:44;;;;;;;43.80;21.00;;;;;;;-1.11;73.89;101438.54;84803;1323;22596;-88
2022/01/23 01:52:56;;;;;;;27.10;12.90;;;;;;;-1.13;73.68;101439.33;84872;1323;24330;-89
2022/01/23 01:55:11;;;;;;;23.60;11.90;;;;;;;-1.13;73.71;101439.16;84843;1326;22623;-87
2022/01/23 01:57:28;;;;;;;28.10;13.60;;;;;;;-1.14;73.82;101439.48;84832;1326;26519;-83
2022/01/23 02:00:10;;;;;;;46.40;21.50;;;;;;;-1.14;73.70;101438.09;84849;1323;22620;-82
2022/01/23 02:09:44;;;;;;;36.10;19.10;;;;;;;-1.06;73.94;101436.44;84639;1332;25288;-88
2022/01/23 02:12:15;;;;;;;67.40;32.70;;;;;;;-1.05;73.91;101432.00;84532;1332;22589;-83
2022/01/23 02:14:37;;;;;;;29.50;15.30;;;;;;;-1.04;73.97;101429.28;84649;1328;22652;-83
2022/01/23 02:24:34;;;;;;;23.00;12.60;;;;;;;-1.10;74.17;101435.12;84875;1324;22590;-84
2022/01/23 02:51:29;;;;;;;14.60;7.40;;;;;;;-1.09;74.38;101459.12;84889;1325;22590;-84
2022/01/23 02:54:05;;;;;;;20.40;11.00;;;;;;;-1.09;74.55;101461.02;84781;1322;22610;-83
2022/01/23 02:56:20;;;;;;;16.10;8.80;;;;;;;-1.11;74.40;101467.13;84843;1322;22695;-84
2022/01/23 02:58:36;;;;;;;10.40;6.90;;;;;;;-1.11;74.48;101470.89;84874;1326;22917;-83
2022/01/23 03:00:59;;;;;;;10.40;5.80;;;;;;;-1.11;74.34;101471.91;84894;1323;23942;-90
2022/01/23 03:03:12;;;;;;;11.90;5.10;;;;;;;-1.09;74.43;101474.19;84863;1327;24032;-89
2022/01/23 03:05:36;;;;;;;9.00;4.40;;;;;;;-1.08;74.43;101478.84;84903;1322;22617;-86
2022/01/23 03:10:18;;;;;;;12.10;6.10;;;;;;;-1.05;74.43;101477.21;84816;1323;22587;-85
2022/01/23 03:15:18;;;;;;;10.90;5.60;;;;;;;-1.03;74.47;101484.98;84842;1324;22600;-91
2022/01/23 03:25:07;;;;;;;20.00;11.40;;;;;;;-1.11;74.55;101509.58;84179;1323;1003358;-89
2022/01/23 03:27:49;;;;;;;25.80;12.50;;;;;;;-1.15;74.36;101508.63;84876;1323;22918;-83
2022/01/23 03:30:14;;;;;;;27.10;14.90;;;;;;;-1.16;74.50;101503.63;84882;1324;22635;-89
2022/01/23 03:32:34;;;;;;;21.30;12.40;;;;;;;-1.15;74.60;101510.33;84866;1324;23307;-90
2022/01/23 03:34:43;;;;;;;14.70;8.00;;;;;;;-1.14;74.51;101516.18;84861;1323;23921;-90
2022/01/23 03:36:58;;;;;;;11.80;6.50;;;;;;;-1.13;74.78;101517.73;84872;1323;25466;-89
2022/01/23 03:39:08;;;;;;;10.40;5.70;;;;;;;-1.12;74.71;101519.85;84875;1324;22668;-89
2022/01/23 03:41:18;;;;;;;12.50;6.00;;;;;;;-1.12;74.70;101523.77;84882;1324;22627;-85
2022/01/23 03:43:34;;;;;;;15.10;7.60;;;;;;;-1.14;74.66;101523.38;84807;1325;22597;-86
2022/01/23 03:45:58;;;;;;;15.50;9.10;;;;;;;-1.17;74.68;101525.17;84788;1328;22766;-90
2022/01/23 03:50:31;;;;;;;12.90;7.50;;;;;;;-1.21;74.82;101528.65;84918;1323;22655;-91
2022/01/23 03:52:43;;;;;;;8.80;5.20;;;;;;;-1.23;74.72;101533.23;84813;1326;24181;-91
2022/01/23 03:54:53;;;;;;;10.60;5.10;;;;;;;-1.25;74.83;101537.09;84910;1323;22593;-91
2022/01/23 03:57:07;;;;;;;8.70;5.30;;;;;;;-1.25;74.87;101542.21;84889;1322;22648;-82
2022/01/23 03:59:19;;;;;;;11.10;4.90;;;;;;;-1.25;74.94;101550.61;84772;1327;22616;-83
2022/01/23 04:01:32;;;;;;;9.70;5.30;;;;;;;-1.25;74.87;101554.21;84840;1329;22716;-89
2022/01/23 04:03:44;;;;;;;12.50;6.30;;;;;;;-1.24;75.00;101563.50;84833;1326;22725;-90
2022/01/23 04:05:54;;;;;;;12.10;6.10;;;;;;;-1.22;74.91;101566.30;84874;1319;22660;-91
2022/01/23 04:08:07;;;;;;;14.70;6.70;;;;;;;-1.21;74.87;101561.69;84859;1324;22594;-89
2022/01/23 04:10:22;;;;;;;13.10;5.30;;;;;;;-1.21;74.99;101564.10;84860;1324;23958;-89
2022/01/23 04:12:43;;;;;;;17.80;8.80;;;;;;;-1.22;75.12;101570.40;84806;1327;23810;-89
2022/01/23 04:15:00;;;;;;;29.60;13.80;;;;;;;-1.23;75.04;101572.77;84795;1326;24238;-90
2022/01/23 04:19:41;;;;;;;30.60;14.20;;;;;;;-1.28;75.11;101575.35;84636;1324;370620;-89
2022/01/23 04:32:04;;;;;;;13.30;8.50;;;;;;;-1.32;75.45;101579.00;84684;1329;22684;-81
2022/01/23 04:34:22;;;;;;;17.00;8.90;;;;;;;-1.31;75.49;101582.48;84821;1320;24328;-80
2022/01/23 04:47:17;;;;;;;13.50;5.80;;;;;;;-1.33;75.61;101583.08;84864;1322;22707;-88
2022/01/23 04:59:33;;;;;;;14.60;7.40;;;;;;;-1.35;75.56;101578.41;84596;1329;22780;-80
2022/01/23 04:59:40;;;;;;;;;;;;;;;-1.29;75.57;101574.98;84528;1333;22599;-81
2022/01/23 05:02:02;;;;;;;17.50;9.00;;;;;;;-1.32;75.61;101579.17;84573;1323;22850;-87
2022/01/23 05:04:16;;;;;;;25.90;10.80;;;;;;;-1.34;75.65;101580.32;84532;1332;22606;-90
2022/01/23 05:06:36;;;;;;;19.30;9.30;;;;;;;-1.35;75.72;101582.34;84503;1333;25476;-81
2022/01/23 05:08:45;;;;;;;21.20;11.50;;;;;;;-1.37;75.64;101582.96;84604;1330;22917;-80
2022/01/23 05:10:58;;;;;;;24.60;11.40;;;;;;;-1.40;75.64;101590.77;84702;1328;24460;-80
2022/01/23 05:13:07;;;;;;;27.50;11.90;;;;;;;-1.43;75.77;101596.83;84789;1326;24089;-78
2022/01/23 05:15:19;;;;;;;;;;;;;;;-1.46;75.51;101604.60;84659;1329;25408;-79
2022/01/23 05:17:28;;;;;;;25.70;11.70;;;;;;;-1.50;75.75;101611.99;84778;1329;22614;-89
2022/01/23 05:19:37;;;;;;;27.70;12.80;;;;;;;-1.52;75.75;101613.98;84812;1326;22665;-88
2022/01/23 05:22:17;;;;;;;34.60;16.80;;;;;;;-1.53;75.97;101613.62;84830;1326;23939;-89
2022/01/23 05:24:34;;;;;;;37.00;16.90;;;;;;;-1.52;76.18;101619.48;84813;1327;23942;-84
2022/01/23 05:26:46;;;;;;;38.10;16.50;;;;;;;-1.49;76.36;101622.48;84816;1326;22729;-86
2022/01/23 05:28:56;;;;;;;44.20;18.50;;;;;;;-1.47;76.25;101630.42;84846;1328;22607;-86
2022/01/23 05:31:05;;;;;;;38.90;18.00;;;;;;;-1.45;76.29;101627.73;84830;1323;25441;-79
2022/01/23 05:33:14;;;;;;;53.00;23.20;;;;;;;-1.44;76.33;101625.54;84801;1325;24213;-80
2022/01/23 05:35:29;;;;;;;42.60;20.30;;;;;;;-1.42;76.31;101626.80;84822;1325;24315;-88
2022/01/23 05:37:39;;;;;;;74.80;37.00;;;;;;;-1.42;76.28;101628.51;84807;1325;25454;-88
2022/01/23 05:39:48;;;;;;;74.80;36.10;;;;;;;-1.43;76.33;101624.55;84860;1324;22600;-89
2022/01/23 05:42:05;;;;;;;67.60;33.70;;;;;;;-1.45;76.17;101626.55;84851;1325;24259;-81
2022/01/23 05:44:15;;;;;;;50.90;21.90;;;;;;;-1.45;76.57;101625.50;84081;1324;1003628;-81
2022/01/23 05:46:27;;;;;;;53.00;26.60;;;;;;;-1.44;76.36;101628.95;84769;1327;24112;-80
2022/01/23 05:48:41;;;;;;;44.90;20.80;;;;;;;-1.42;76.41;101631.42;84800;1326;23761;-81
2022/01/23 05:50:50;;;;;;;56.10;25.80;;;;;;;-1.37;76.45;101626.79;84783;1326;22714;-81
2022/01/23 05:53:00;;;;;;;62.00;31.40;;;;;;;-1.33;76.46;101628.82;84759;1326;22599;-80
2022/01/23 05:55:12;;;;;;;54.50;25.00;;;;;;;-1.29;76.51;101636.45;84607;1332;22619;-80
2022/01/23 05:57:23;;;;;;;45.20;21.80;;;;;;;-1.26;76.64;101643.38;84774;1326;25514;-81
2022/01/23 05:59:32;;;;;;;71.10;30.90;;;;;;;-1.26;76.46;101641.67;84677;1329;22730;-80
2022/01/23 06:01:43;;;;;;;65.70;30.50;;;;;;;-1.23;76.39;101645.70;84651;1329;24298;-88
2022/01/23 06:03:53;;;;;;;49.70;26.10;;;;;;;-1.23;76.48;101647.56;84796;1326;22617;-89
2022/01/23 06:06:02;;;;;;;59.00;27.10;;;;;;;-1.23;76.38;101650.48;84805;1326;22611;-81
2022/01/23 06:08:14;;;;;;;44.70;20.30;;;;;;;-1.26;76.48;101652.63;84753;1326;22589;-81
2022/01/23 06:10:26;;;;;;;42.20;21.00;;;;;;;-1.28;76.45;101658.73;84784;1327;25526;-81
2022/01/23 06:12:34;;;;;;;;;;;;;;;-1.29;76.64;101657.52;84684;1326;22863;-80
2022/01/23 06:14:44;;;;;;;40.00;16.20;;;;;;;-1.32;76.59;101660.84;84680;1330;22618;-81
2022/01/23 06:16:52;;;;;;;;;;;;;;;-1.31;76.65;101665.66;84688;1329;22610;-87
2022/01/23 06:19:01;;;;;;;27.90;15.00;;;;;;;-1.32;76.71;101664.77;84717;1328;22743;-89
2022/01/23 06:21:18;;;;;;;36.10;18.00;;;;;;;-1.27;76.68;101665.94;84813;1326;22706;-81
2022/01/23 06:23:30;;;;;;;38.80;20.00;;;;;;;-1.25;76.61;101670.29;84780;1326;24393;-81
2022/01/23 06:25:40;;;;;;;33.00;15.90;;;;;;;-1.23;76.69;101669.86;84766;1326;22617;-89
2022/01/23 06:27:50;;;;;;;25.90;13.20;;;;;;;-1.21;76.67;101671.09;84786;1327;22612;-89
2022/01/23 06:30:03;;;;;;;31.00;16.20;;;;;;;-1.21;76.72;101673.84;84777;1324;22590;-88
2022/01/23 06:32:13;;;;;;;28.80;12.60;;;;;;;-1.23;76.76;101680.29;84790;1326;22659;-88
2022/01/23 06:34:22;;;;;;;22.40;13.30;;;;;;;-1.24;76.57;101683.50;84799;1326;22711;-87
2022/01/23 06:36:32;;;;;;;20.30;9.80;;;;;;;-1.26;76.63;101682.93;84099;1326;1003847;-89
2022/01/23 06:38:45;;;;;;;26.90;14.20;;;;;;;-1.26;76.62;101685.15;84721;1328;22616;-89
2022/01/23 06:40:55;;;;;;;21.00;10.00;;;;;;;-1.27;76.59;101690.09;84613;1326;22679;-81
2022/01/23 06:43:04;;;;;;;15.70;7.60;;;;;;;-1.28;76.77;101691.44;84776;1328;22614;-81
2022/01/23 06:45:13;;;;;;;18.40;7.60;;;;;;;-1.26;76.81;101692.67;84763;1326;22615;-79
2022/01/23 06:47:23;;;;;;;12.50;7.50;;;;;;;-1.25;76.89;101701.10;84770;1326;22601;-87
2022/01/23 06:49:35;;;;;;;10.20;5.40;;;;;;;-1.22;76.89;101707.20;84775;1326;22644;-86
2022/01/23 06:51:45;;;;;;;21.30;9.20;;;;;;;-1.17;76.93;101716.10;84813;1326;22593;-87
2022/01/23 06:53:54;;;;;;;26.10;13.30;;;;;;;-1.13;77.08;101718.45;84782;1327;23915;-88
2022/01/23 06:56:03;;;;;;;18.70;10.00;;;;;;;-1.08;77.12;101723.73;84801;1326;22658;-87
2022/01/23 06:58:12;;;;;;;29.40;13.30;;;;;;;-1.05;76.89;101729.31;84763;1327;22599;-86
2022/01/23 07:00:21;;;;;;;31.90;15.40;;;;;;;-1.02;77.00;101732.48;84765;1326;22803;-84
2022/01/23 07:02:34;;;;;;;38.40;20.50;;;;;;;-1.01;77.16;101737.31;84756;1326;22582;-78
2022/01/23 07:04:44;;;;;;;30.80;15.00;;;;;;;-1.01;77.12;101746.04;84765;1326;22607;-79
2022/01/23 07:06:54;;;;;;;42.80;17.30;;;;;;;-1.00;77.02;101748.45;84729;1329;22620;-87
2022/01/23 07:09:07;;;;;;;33.90;14.50;;;;;;;-0.99;77.13;101752.27;84792;1326;24344;-87
2022/01/23 07:11:16;;;;;;;29.60;13.90;;;;;;;-0.98;76.99;101756.42;84805;1326;22922;-80
2022/01/23 07:13:26;;;;;;;45.40;20.80;;;;;;;-0.96;77.17;101760.08;84778;1328;22837;-79
2022/01/23 07:15:35;;;;;;;50.20;20.20;;;;;;;-0.92;76.78;101765.34;84758;1326;25446;-80
2022/01/23 07:17:44;;;;;;;47.70;21.90;;;;;;;-0.89;77.12;101766.48;84774;1326;22754;-78
2022/01/23 07:19:57;;;;;;;21.00;10.00;;;;;;;-0.83;76.88;101769.91;84811;1326;24271;-87
2022/01/23 07:22:06;;;;;;;25.90;13.80;;;;;;;-0.76;77.10;101769.76;84769;1326;24242;-87
2022/01/23 07:24:15;;;;;;;22.90;11.70;;;;;;;-0.69;76.90;101771.86;83369;1327;1003152;-87
2022/01/23 07:26:27;;;;;;;13.60;7.70;;;;;;;-0.66;76.75;101777.26;84730;1320;22731;-79
2022/01/23 07:28:40;;;;;;;24.00;13.50;;;;;;;-0.65;76.65;101778.67;84665;1330;22639;-81
2022/01/23 07:30:52;;;;;;;17.20;8.30;;;;;;;-0.63;76.50;101773.61;84699;1328;22932;-79
2022/01/23 07:33:01;;;;;;;10.50;6.10;;;;;;;-0.63;76.24;101775.84;84616;1329;22656;-80
2022/01/23 07:35:11;;;;;;;9.20;5.50;;;;;;;-0.61;76.35;101776.58;84774;1327;22702;-81
2022/01/23 07:37:21;;;;;;;140.70;63.50;;;;;;;-0.59;76.22;101780.24;84668;1327;22592;-81
2022/01/23 07:39:34;;;;;;;69.60;33.20;;;;;;;-0.55;76.09;101785.98;84817;1326;22685;-81
2022/01/23 07:41:43;;;;;;;13.70;7.30;;;;;;;-0.53;75.93;101789.33;84719;1324;22714;-82
2022/01/23 07:43:52;;;;;;;11.60;4.40;;;;;;;-0.53;75.79;101793.78;84772;1326;24082;-89
2022/01/23 07:46:02;;;;;;;10.60;4.40;;;;;;;-0.52;75.48;101799.11;84823;1328;22601;-88
2022/01/23 07:48:11;;;;;;;4.80;3.20;;;;;;;-0.50;75.35;101796.23;84792;1327;22625;-88
2022/01/23 07:50:21;;;;;;;5.10;3.10;;;;;;;-0.49;75.18;101798.52;84802;1326;24142;-87
2022/01/23 07:52:35;;;;;;;5.80;3.40;;;;;;;-0.45;75.02;101807.36;84782;1326;22622;-81
2022/01/23 07:54:44;;;;;;;6.80;4.20;;;;;;;-0.41;74.82;101807.50;84776;1326;22627;-81
2022/01/23 07:56:53;;;;;;;7.30;2.90;;;;;;;-0.37;74.72;101811.39;84790;1326;22664;-81
2022/01/23 07:59:02;;;;;;;5.10;2.70;;;;;;;-0.32;74.31;101817.88;84794;1326;22624;-80
2022/01/23 08:01:11;;;;;;;9.00;3.10;;;;;;;-0.31;73.84;101827.86;84777;1326;25279;-81
2022/01/23 08:03:21;;;;;;;6.00;3.10;;;;;;;-0.30;73.53;101830.30;84586;1332;22608;-80
2022/01/23 08:05:30;;;;;;;4.50;3.10;;;;;;;-0.29;73.33;101835.83;84736;1327;25163;-88
2022/01/23 08:07:39;;;;;;;6.30;3.30;;;;;;;-0.27;73.40;101843.94;84775;1326;26534;-86
2022/01/23 08:09:48;;;;;;;5.00;2.90;;;;;;;-0.23;73.00;101848.15;84024;1330;1003057;-86
2022/01/23 08:12:00;;;;;;;7.90;4.50;;;;;;;-0.22;72.82;101847.52;84685;1329;24238;-80
2022/01/23 08:14:09;;;;;;;6.90;3.70;;;;;;;-0.21;72.41;101848.89;84805;1327;25447;-81
2022/01/23 08:16:21;;;;;;;4.00;3.00;;;;;;;-0.21;72.66;101850.79;84820;1326;22766;-85
2022/01/23 08:18:31;;;;;;;4.30;2.70;;;;;;;-0.20;72.60;101851.15;84800;1326;22865;-86
2022/01/23 08:20:42;;;;;;;5.90;3.30;;;;;;;-0.17;72.58;101853.30;84804;1326;25295;-82
2022/01/23 08:22:52;;;;;;;5.10;3.40;;;;;;;-0.16;72.23;101848.88;84728;1327;22598;-80
2022/01/23 08:25:03;;;;;;;5.80;2.80;;;;;;;-0.13;71.94;101851.55;84789;1326;22586;-81
2022/01/23 08:27:13;;;;;;;4.00;2.30;;;;;;;-0.07;71.91;101850.51;84828;1328;25327;-81
2022/01/23 08:29:26;;;;;;;3.20;2.20;;;;;;;-0.00;71.41;101850.89;84806;1326;22766;-81
2022/01/23 08:31:36;;;;;;;3.10;2.40;;;;;;;0.05;71.23;101851.02;84830;1323;22659;-86
2022/01/23 08:33:45;;;;;;;7.10;2.60;;;;;;;0.14;70.77;101860.55;84721;1328;22633;-86
2022/01/23 08:35:57;;;;;;;;;;;;;;;0.23;70.43;101866.13;84828;1330;22591;-81
2022/01/23 08:38:07;;;;;;;3.70;2.40;;;;;;;0.30;69.82;101875.44;84807;1330;22743;-81
2022/01/23 08:40:34;;;;;;;3.20;2.60;;;;;;;0.41;70.02;101879.84;84726;1327;25357;-80
2022/01/23 08:42:45;;;;;;;4.20;2.10;;;;;;;0.52;69.13;101885.84;84689;1331;22750;-85
2022/01/23 08:44:53;;;;;;;;;;;;;;;0.64;68.55;101885.63;84770;1327;22603;-85
2022/01/23 08:47:03;;;;;;;5.10;2.90;;;;;;;0.74;68.16;101889.50;84811;1326;24679;-84
2022/01/23 08:49:12;;;;;;;3.10;2.10;;;;;;;0.86;67.53;101894.10;84781;1327;25460;-85
2022/01/23 08:51:21;;;;;;;2.80;2.00;;;;;;;0.97;67.82;101896.11;84812;1326;22797;-85
2022/01/23 08:53:32;;;;;;;3.80;2.20;;;;;;;1.10;67.49;101899.02;84792;1325;22632;-85
2022/01/23 08:55:42;;;;;;;5.70;2.10;;;;;;;1.25;66.68;101896.81;84676;1329;22779;-80
2022/01/23 08:57:52;;;;;;;4.00;3.30;;;;;;;1.42;66.52;101903.24;84681;1327;22894;-79
2022/01/23 09:00:02;;;;;;;3.40;2.30;;;;;;;1.65;65.37;101911.53;84781;1325;24267;-80
2022/01/23 09:02:18;;;;;;;6.70;2.80;;;;;;;1.77;66.25;101908.55;84781;1326;22621;-88
2022/01/23 09:04:27;;;;;;;2.80;2.20;;;;;;;1.89;65.35;101905.19;84778;1326;22661;-80
2022/01/23 09:06:39;;;;;;;5.90;2.70;;;;;;;1.95;65.00;101911.53;84709;1329;22647;-88
2022/01/23 09:08:51;;;;;;;3.70;2.20;;;;;;;2.20;64.82;101912.07;84816;1325;23122;-88
2022/01/23 09:11:07;;;;;;;5.40;2.70;;;;;;;2.27;63.88;101915.66;84786;1328;23036;-80
2022/01/23 09:13:30;;;;;;;3.60;2.10;;;;;;;2.35;63.41;101917.69;84792;1326;24395;-81
2022/01/23 09:15:39;;;;;;;18.40;11.00;;;;;;;2.35;63.10;101919.27;84779;1326;25345;-80
2022/01/23 09:17:49;;;;;;;349.50;131.70;;;;;;;2.33;62.63;101921.79;84682;1330;23981;-79
2022/01/23 09:19:59;;;;;;;24.30;10.90;;;;;;;2.31;63.01;101923.65;84791;1327;22728;-80
2022/01/23 09:22:09;;;;;;;20.40;7.80;;;;;;;2.36;62.90;101921.67;84815;1327;22587;-87
2022/01/23 09:24:18;;;;;;;75.40;27.50;;;;;;;2.37;62.04;101925.50;84787;1327;22601;-80
2022/01/23 09:26:28;;;;;;;18.80;7.40;;;;;;;2.35;61.29;101924.23;84791;1321;22694;-79
2022/01/23 09:28:39;;;;;;;7.40;3.80;;;;;;;2.31;60.68;101930.02;84800;1328;25482;-80
2022/01/23 09:30:51;;;;;;;1.80;1.60;;;;;;;2.27;60.74;101929.94;84782;1326;22867;-87
2022/01/23 09:33:00;;;;;;;3.20;1.70;;;;;;;2.30;60.97;101934.64;84735;1327;23816;-87
2022/01/23 09:35:11;;;;;;;2.00;1.50;;;;;;;2.43;60.80;101939.04;84807;1326;22598;-89
2022/01/23 09:37:21;;;;;;;14.10;5.90;;;;;;;2.96;60.68;101939.05;84814;1326;24263;-86
2022/01/23 09:39:31;;;;;;;30.00;12.30;;;;;;;3.10;60.23;101936.89;84823;1330;24249;-89
2022/01/23 09:41:40;;;;;;;3.80;2.20;;;;;;;3.11;59.08;101936.89;84798;1329;26510;-80
2022/01/23 09:43:54;;;;;;;13.50;5.60;;;;;;;3.08;58.09;101934.27;84672;1329;22619;-80
2022/01/23 09:46:05;;;;;;;29.60;13.10;;;;;;;3.04;57.94;101928.84;84799;1326;22619;-86
2022/01/23 09:48:18;;;;;;;9.60;6.20;;;;;;;3.03;57.71;101931.59;84693;1329;22621;-87
2022/01/23 09:50:27;;;;;;;3.30;2.70;;;;;;;3.13;58.05;101921.41;84821;1326;24169;-88
2022/01/23 09:52:37;;;;;;;3.50;1.90;;;;;;;3.16;57.78;101922.16;84725;1328;24271;-79
2022/01/23 09:54:56;;;;;;;2.90;2.10;;;;;;;3.36;58.12;101923.38;84815;1326;22832;-88
2022/01/23 09:57:10;;;;;;;3.50;1.90;;;;;;;3.65;57.62;101924.01;84843;1326;22981;-79
2022/01/23 09:59:24;;;;;;;2.80;2.50;;;;;;;3.90;57.41;101925.39;84796;1326;22636;-77
2022/01/23 10:01:36;;;;;;;2.60;1.80;;;;;;;4.23;57.02;101924.13;84804;1324;22685;-79
2022/01/23 10:03:49;;;;;;;64.60;39.50;;;;;;;4.71;55.97;101920.73;84816;1326;25313;-87
2022/01/23 10:06:00;;;;;;;34.50;22.90;;;;;;;5.11;55.03;101916.62;84787;1326;22661;-78
2022/01/23 10:08:11;;;;;;;4.40;3.40;;;;;;;5.43;53.80;101911.88;84844;1327;22752;-82
2022/01/23 10:10:27;;;;;;;3.50;3.10;;;;;;;5.76;54.11;101906.92;84726;1328;22627;-86
2022/01/23 10:12:37;;;;;;;2.90;2.00;;;;;;;6.14;53.27;101902.66;84823;1326;24217;-78
2022/01/23 10:14:52;;;;;;;2.50;1.90;;;;;;;6.46;52.43;101894.47;84676;1320;23075;-78
2022/01/23 10:17:04;;;;;;;4.50;2.80;;;;;;;6.75;51.87;101896.30;84804;1327;22632;-77
2022/01/23 10:19:20;;;;;;;2.90;2.30;;;;;;;7.18;50.87;101895.48;84785;1326;22602;-77
2022/01/23 10:21:29;;;;;;;4.20;3.00;;;;;;;7.44;50.52;101900.86;84768;1326;22673;-77
2022/01/23 10:23:39;;;;;;;11.30;6.90;;;;;;;7.65;49.36;101905.02;84792;1326;22611;-73
2022/01/23 10:25:51;;;;;;;6.20;4.70;;;;;;;7.88;49.11;101908.97;84754;1327;22605;-85
2022/01/23 10:28:07;;;;;;;17.40;10.00;;;;;;;8.10;47.97;101906.30;84760;1329;25410;-84
2022/01/23 10:30:23;;;;;;;29.10;15.30;;;;;;;8.09;47.10;101910.64;84762;1326;23952;-86
2022/01/23 10:32:35;;;;;;;58.60;31.70;;;;;;;8.13;47.74;101912.02;84670;1324;22677;-74
2022/01/23 10:34:51;;;;;;;7.10;4.60;;;;;;;8.09;47.74;101918.81;84705;1328;25612;-73
2022/01/23 10:37:01;;;;;;;3.30;2.50;;;;;;;7.78;46.66;101919.23;84767;1327;25386;-75
2022/01/23 10:39:18;;;;;;;5.40;4.20;;;;;;;7.33;46.65;101915.96;84661;1329;24135;-78
2022/01/23 10:41:46;;;;;;;6.90;5.40;;;;;;;6.68;46.45;101921.25;84661;1329;22626;-89
2022/01/23 10:47:17;;;;;;;2.70;1.80;;;;;;;5.38;47.87;101928.29;84695;1329;23992;-87
2022/01/23 10:49:25;;;;;;;6.70;2.70;;;;;;;4.89;48.12;101929.20;84783;1326;22629;-86
2022/01/23 10:51:36;;;;;;;6.50;3.20;;;;;;;4.50;48.46;101928.77;84728;1328;22606;-78
2022/01/23 10:54:06;;;;;;;6.70;4.60;;;;;;;4.18;49.44;101932.86;84754;1326;23024;-78
2022/01/23 10:56:19;;;;;;;21.00;11.80;;;;;;;3.85;49.84;101931.02;84762;1327;22800;-86
2022/01/23 10:58:31;;;;;;;12.70;7.60;;;;;;;3.53;50.21;101931.91;84783;1326;23002;-87
2022/01/23 11:00:44;;;;;;;5.80;2.70;;;;;;;3.28;50.94;101934.09;84783;1326;25319;-79
2022/01/23 11:02:58;;;;;;;4.60;2.30;;;;;;;3.04;51.23;101931.08;84677;1328;24007;-77
2022/01/23 11:05:15;;;;;;;3.00;2.40;;;;;;;2.82;51.74;101930.52;84684;1328;22615;-76
2022/01/23 11:07:25;;;;;;;3.80;2.80;;;;;;;2.66;52.31;101930.54;84778;1327;22592;-83
2022/01/23 11:09:36;;;;;;;4.80;2.70;;;;;;;2.52;52.69;101928.21;84659;1329;24192;-85
2022/01/23 11:11:52;;;;;;;9.60;5.60;;;;;;;2.37;52.72;101929.27;84678;1329;22608;-78
2022/01/23 11:19:13;;;;;;;10.50;6.20;;;;;;;1.95;53.89;101934.74;84789;1324;24272;-78
2022/01/23 11:21:24;;;;;;;6.50;4.80;;;;;;;1.84;53.81;101939.33;84837;1325;22704;-76
2022/01/23 11:23:35;;;;;;;4.00;3.00;;;;;;;1.72;54.03;101941.28;84654;1328;22618;-78
2022/01/23 11:26:06;;;;;;;;;;;;;;;1.66;54.32;101946.64;84791;1327;23828;-78
2022/01/23 11:28:17;;;;;;;10.30;6.90;;;;;;;1.51;54.29;101949.21;83860;1333;1003834;-77
2022/01/23 11:30:41;;;;;;;5.90;5.10;;;;;;;1.42;54.50;101949.34;84784;1326;22862;-83
2022/01/23 11:32:57;;;;;;;2.90;2.30;;;;;;;1.35;54.64;101948.65;84679;1329;25448;-84
2022/01/23 11:35:19;;;;;;;4.30;2.60;;;;;;;1.28;54.73;101949.83;84804;1326;23460;-82
2022/01/23 11:37:32;;;;;;;5.10;2.50;;;;;;;1.21;55.08;101949.83;84795;1324;22799;-76
2022/01/23 11:39:46;;;;;;;4.10;3.30;;;;;;;1.15;55.13;101956.02;84647;1328;22652;-77
2022/01/23 11:54:23;;;;;;;9.70;5.70;;;;;;;0.77;56.15;101969.82;84772;1330;22619;-84
2022/01/23 11:56:47;;;;;;;6.40;4.00;;;;;;;0.74;56.33;101972.13;84788;1328;22666;-85
2022/01/23 11:59:14;;;;;;;5.80;3.10;;;;;;;0.69;56.14;101970.80;84801;1322;22634;-85
2022/01/23 12:01:25;;;;;;;3.60;2.30;;;;;;;0.64;55.97;101973.57;84690;1328;22621;-76
2022/01/23 12:03:38;;;;;;;6.00;3.30;;;;;;;0.57;55.77;101971.46;84762;1326;22653;-77
2022/01/23 12:05:49;;;;;;;5.20;2.80;;;;;;;0.52;56.01;101972.02;84650;1330;22618;-77
2022/01/23 12:08:27;;;;;;;5.10;2.90;;;;;;;0.47;56.01;101970.69;84782;1326;23849;-77
2022/01/23 12:10:51;;;;;;;4.10;2.70;;;;;;;0.43;56.35;101967.30;84798;1329;22603;-78
2022/01/23 12:13:56;;;;;;;4.90;3.40;;;;;;;0.39;56.12;101966.48;84759;1326;22608;-78
2022/01/23 12:16:27;;;;;;;6.60;3.00;;;;;;;0.30;56.20;101960.38;84696;1328;22625;-77
2022/01/23 12:18:36;;;;;;;4.20;2.70;;;;;;;0.24;56.45;101962.63;84533;1327;183839;-77
2022/01/23 12:20:50;;;;;;;5.50;3.30;;;;;;;0.22;56.40;101965.83;84790;1326;22871;-84
2022/01/23 12:23:02;;;;;;;6.10;3.00;;;;;;;0.20;56.64;101971.92;83967;1326;1003327;-84
2022/01/23 12:25:23;;;;;;;5.80;3.90;;;;;;;0.18;56.70;101975.83;84680;1328;22741;-83
2022/01/23 12:27:31;;;;;;;;;;;;;;;0.14;56.77;101980.66;84785;1326;22837;-80
2022/01/23 12:29:41;;;;;;;8.20;3.70;;;;;;;0.08;56.97;101985.98;84723;1329;22672;-81
2022/01/23 12:32:16;;;;;;;6.20;3.10;;;;;;;0.06;56.88;101989.88;84626;1329;23242;-76